Forside
METAR-TAF:

METAR-TAF

Lufthavne :

Cedar Rapids, Iowa, USA

Breddekreds: 41-53-04N, længdekreds: 091-42-38W, højde: 263 m

Aktuelle vejr

Denne rapport blev lavet for 43 minutter siden, kl. 13:52 UTC
Vind 10 kt fra østnordøst
Temperatur 10°C
Fugtighed 50%
Tryk 1028 hPa
Sigt: 16.1 km
skyfri

METAR: KCID 111352Z 07010KT 10SM CLR 10/00 A3035 RMK AO2 SLP281 T01000000

Tid: 09:35 (14:35 UTC)

Vejrudsigter

Denne rapport blev lavet for 3 timer og 15 minutter siden, kl. 11:20 UTC
Foreløbig gælder fra 11 på 12 UTC til 12 på 12 UTC
Vind 7 kt fra nordøst
Sigt: 10 km
Spredte skyer i en højde af 25000 ft
Fra 11 på 1600 UTC
Vind 12 kt fra nordøst
Sigt: 10 km
Spredte skyer i en højde af 5000 ft
Brudte skyer i en højde af 25000 ft
Fra 12 på 0000 UTC
Vind 3 kt fra varierende retninger
Sigt: 10 km
Spredte skyer i en højde af 25000 ft

TAF: KCID 111120Z 1112/1212 04007KT P6SM SCT250 FM111600 05012KT P6SM SCT050 BKN250 FM120000 VRB03KT P6SM SCT250

Vejrobservationer og prognoser fra mere end 4000 lufthavne (METAR og TAF).

De gule og røde prikker repræsenterer de meteorologiske stationer.

Flyt musen over at se navnet på stationen.

Så klik over at se vejr observationer og prognoser.

At skifte det kort: Klik på de grønne knapper med et sort kors for at zoome ind; på den grønne knap med en bindestreg for at zoome ud; eller på de grønne pile for tilstødende kort.


METAR-TAF: